sensor_id;sensor_type;location;lat;lon;timestamp;pressure;altitude;pressure_sealevel;temperature;humidity
30073;BME280;16897;52.422;13.678;2023-03-13T00:03:35;100298.44;;;8.45;58.54
30073;BME280;16897;52.422;13.678;2023-03-13T00:07:36;100305.53;;;8.59;58.79
30073;BME280;16897;52.422;13.678;2023-03-13T00:11:38;100296.19;;;8.55;58.86
30073;BME280;16897;52.422;13.678;2023-03-13T00:15:40;100291.75;;;8.57;58.68
30073;BME280;16897;52.422;13.678;2023-03-13T00:19:41;100268.38;;;8.39;58.84
30073;BME280;16897;52.422;13.678;2023-03-13T00:23:43;100294.19;;;8.60;58.77
30073;BME280;16897;52.422;13.678;2023-03-13T00:27:44;100277.56;;;8.62;58.80
30073;BME280;16897;52.422;13.678;2023-03-13T00:31:46;100284.28;;;8.67;58.62
30073;BME280;16897;52.422;13.678;2023-03-13T00:35:48;100298.56;;;8.75;58.84
30073;BME280;16897;52.422;13.678;2023-03-13T00:39:50;100270.41;;;8.66;58.66
30073;BME280;16897;52.422;13.678;2023-03-13T00:43:56;100262.44;;;8.69;58.74
30073;BME280;16897;52.422;13.678;2023-03-13T00:47:58;100271.53;;;8.78;58.75
30073;BME280;16897;52.422;13.678;2023-03-13T00:52:00;100259.94;;;8.83;58.88
30073;BME280;16897;52.422;13.678;2023-03-13T00:56:04;100266.38;;;8.92;58.80
30073;BME280;16897;52.422;13.678;2023-03-13T01:00:06;100240.13;;;8.81;58.73
30073;BME280;16897;52.422;13.678;2023-03-13T01:04:10;100238.81;;;8.88;58.72
30073;BME280;16897;52.422;13.678;2023-03-13T01:08:12;100230.19;;;8.88;58.99
30073;BME280;16897;52.422;13.678;2023-03-13T01:12:14;100239.34;;;8.95;58.90
30073;BME280;16897;52.422;13.678;2023-03-13T01:16:17;100245.03;;;9.01;58.92
30073;BME280;16897;52.422;13.678;2023-03-13T01:20:19;100249.03;;;9.07;58.78
30073;BME280;16897;52.422;13.678;2023-03-13T01:24:21;100229.41;;;9.01;58.90
30073;BME280;16897;52.422;13.678;2023-03-13T01:28:25;100223.28;;;9.02;58.90
30073;BME280;16897;52.422;13.678;2023-03-13T01:32:28;100202.13;;;8.93;58.92
30073;BME280;16897;52.422;13.678;2023-03-13T01:36:34;100243.16;;;9.19;58.93
30073;BME280;16897;52.422;13.678;2023-03-13T01:40:47;100246.59;;;9.20;58.88
30073;BME280;16897;52.422;13.678;2023-03-13T01:44:55;100236.81;;;9.23;59.04
30073;BME280;16897;52.422;13.678;2023-03-13T01:49:04;100238.34;;;9.27;58.83
30073;BME280;16897;52.422;13.678;2023-03-13T01:53:12;100217.88;;;9.21;58.99
30073;BME280;16897;52.422;13.678;2023-03-13T01:57:41;100216.38;;;9.31;59.10
30073;BME280;16897;52.422;13.678;2023-03-13T02:01:45;100197.03;;;9.21;58.97
30073;BME280;16897;52.422;13.678;2023-03-13T02:05:48;100215.66;;;9.29;58.88
30073;BME280;16897;52.422;13.678;2023-03-13T02:09:52;100214.34;;;9.37;58.99
30073;BME280;16897;52.422;13.678;2023-03-13T02:13:55;100188.09;;;9.25;58.96
30073;BME280;16897;52.422;13.678;2023-03-13T02:17:58;100203.19;;;9.35;59.11
30073;BME280;16897;52.422;13.678;2023-03-13T02:26:34;100172.84;;;9.34;59.03
30073;BME280;16897;52.422;13.678;2023-03-13T02:30:36;100172.41;;;9.41;59.10
30073;BME280;16897;52.422;13.678;2023-03-13T02:34:39;100170.72;;;9.40;59.10
30073;BME280;16897;52.422;13.678;2023-03-13T02:38:47;100146.91;;;9.32;58.98
30073;BME280;16897;52.422;13.678;2023-03-13T02:42:52;100168.00;;;9.42;58.98
30073;BME280;16897;52.422;13.678;2023-03-13T02:46:55;100162.53;;;9.46;58.95
30073;BME280;16897;52.422;13.678;2023-03-13T02:51:02;100163.28;;;9.48;59.16
30073;BME280;16897;52.422;13.678;2023-03-13T02:55:08;100138.78;;;9.37;59.04
30073;BME280;16897;52.422;13.678;2023-03-13T02:59:11;100113.66;;;9.21;59.14
30073;BME280;16897;52.422;13.678;2023-03-13T03:03:16;100114.94;;;9.28;59.07
30073;BME280;16897;52.422;13.678;2023-03-13T03:07:18;100119.44;;;9.41;59.17
30073;BME280;16897;52.422;13.678;2023-03-13T03:11:19;100134.63;;;9.48;59.12
30073;BME280;16897;52.422;13.678;2023-03-13T03:15:27;100117.28;;;9.47;59.23
30073;BME280;16897;52.422;13.678;2023-03-13T03:19:29;100118.03;;;9.49;59.05
30073;BME280;16897;52.422;13.678;2023-03-13T03:23:34;100118.53;;;9.56;59.10
30073;BME280;16897;52.422;13.678;2023-03-13T03:27:36;100112.38;;;9.57;59.21
30073;BME280;16897;52.422;13.678;2023-03-13T03:31:41;100113.13;;;9.59;59.01
30073;BME280;16897;52.422;13.678;2023-03-13T03:35:43;100103.59;;;9.58;59.14
30073;BME280;16897;52.422;13.678;2023-03-13T03:39:47;100103.34;;;9.63;59.05
30073;BME280;16897;52.422;13.678;2023-03-13T03:43:49;100063.78;;;9.42;59.20
30073;BME280;16897;52.422;13.678;2023-03-13T03:47:55;100095.25;;;9.67;59.21
30073;BME280;16897;52.422;13.678;2023-03-13T03:52:00;100085.84;;;9.65;59.29
30073;BME280;16897;52.422;13.678;2023-03-13T03:56:07;100081.44;;;9.65;59.13
30073;BME280;16897;52.422;13.678;2023-03-13T04:00:14;100053.53;;;9.53;59.29
30073;BME280;16897;52.422;13.678;2023-03-13T04:04:22;100062.09;;;9.69;59.23
30073;BME280;16897;52.422;13.678;2023-03-13T04:08:28;100071.19;;;9.77;59.16
30073;BME280;16897;52.422;13.678;2023-03-13T04:12:31;100046.47;;;9.69;59.10
30073;BME280;16897;52.422;13.678;2023-03-13T04:16:33;100060.56;;;9.80;59.32
30073;BME280;16897;52.422;13.678;2023-03-13T04:20:36;100039.63;;;9.81;59.19
30073;BME280;16897;52.422;13.678;2023-03-13T04:24:37;99994.13;;;9.58;59.14
30073;BME280;16897;52.422;13.678;2023-03-13T04:28:39;100034.13;;;9.86;59.13
30073;BME280;16897;52.422;13.678;2023-03-13T04:32:42;100019.31;;;9.86;59.24
30073;BME280;16897;52.422;13.678;2023-03-13T04:36:53;100013.97;;;9.88;59.10
30073;BME280;16897;52.422;13.678;2023-03-13T04:41:15;100012.94;;;9.90;59.28
30073;BME280;16897;52.422;13.678;2023-03-13T04:45:38;99983.91;;;9.82;59.13
30073;BME280;16897;52.422;13.678;2023-03-13T04:50:11;99989.41;;;9.92;59.24
30073;BME280;16897;52.422;13.678;2023-03-13T04:54:36;99983.16;;;9.94;59.27
30073;BME280;16897;52.422;13.678;2023-03-13T04:58:43;99981.28;;;9.96;59.28
30073;BME280;16897;52.422;13.678;2023-03-13T05:02:52;99974.91;;;10.01;59.23
30073;BME280;16897;52.422;13.678;2023-03-13T05:07:02;99965.53;;;9.98;59.35
30073;BME280;16897;52.422;13.678;2023-03-13T05:11:22;99971.19;;;10.05;59.18
30073;BME280;16897;52.422;13.678;2023-03-13T05:15:47;99952.94;;;10.05;59.36
30073;BME280;16897;52.422;13.678;2023-03-13T05:20:09;99944.06;;;10.07;59.31
30073;BME280;16897;52.422;13.678;2023-03-13T05:24:21;99915.97;;;9.98;59.28
30073;BME280;16897;52.422;13.678;2023-03-13T05:28:34;99917.88;;;10.09;59.17
30073;BME280;16897;52.422;13.678;2023-03-13T05:33:03;99914.97;;;10.13;59.42
30073;BME280;16897;52.422;13.678;2023-03-13T05:37:23;99902.84;;;10.12;59.31
30073;BME280;16897;52.422;13.678;2023-03-13T05:41:32;99895.75;;;10.14;59.29
30073;BME280;16897;52.422;13.678;2023-03-13T05:45:49;99893.88;;;10.16;59.33
30073;BME280;16897;52.422;13.678;2023-03-13T05:50:10;99856.91;;;9.97;59.33
30073;BME280;16897;52.422;13.678;2023-03-13T05:54:32;99871.34;;;10.15;59.36
30073;BME280;16897;52.422;13.678;2023-03-13T05:59:09;99791.88;;;9.68;59.42
30073;BME280;16897;52.422;13.678;2023-03-13T06:03:34;99863.09;;;10.22;59.28
30073;BME280;16897;52.422;13.678;2023-03-13T06:07:36;99849.53;;;10.16;59.23
30073;BME280;16897;52.422;13.678;2023-03-13T06:11:38;99850.78;;;10.24;59.34
30073;BME280;16897;52.422;13.678;2023-03-13T06:15:40;99849.00;;;10.24;59.31
30073;BME280;16897;52.422;13.678;2023-03-13T06:19:49;99826.03;;;10.16;59.47
30073;BME280;16897;52.422;13.678;2023-03-13T06:23:51;99835.66;;;10.29;59.54
30073;BME280;16897;52.422;13.678;2023-03-13T06:27:53;99828.00;;;10.26;59.43
30073;BME280;16897;52.422;13.678;2023-03-13T06:31:54;99816.66;;;10.27;59.40
30073;BME280;16897;52.422;13.678;2023-03-13T06:35:56;99776.16;;;10.08;59.42
30073;BME280;16897;52.422;13.678;2023-03-13T06:40:00;99794.78;;;10.29;59.42
30073;BME280;16897;52.422;13.678;2023-03-13T06:44:02;99759.47;;;10.11;59.38
30073;BME280;16897;52.422;13.678;2023-03-13T06:48:04;99783.06;;;10.35;59.51
30073;BME280;16897;52.422;13.678;2023-03-13T06:52:05;99755.72;;;10.28;59.52
30073;BME280;16897;52.422;13.678;2023-03-13T06:56:07;99758.13;;;10.31;59.51
30073;BME280;16897;52.422;13.678;2023-03-13T07:00:10;99755.28;;;10.34;59.48
30073;BME280;16897;52.422;13.678;2023-03-13T07:04:12;99741.19;;;10.36;59.43
30073;BME280;16897;52.422;13.678;2023-03-13T07:08:13;99739.94;;;10.42;59.48
30073;BME280;16897;52.422;13.678;2023-03-13T07:12:15;99726.03;;;10.41;59.52
30073;BME280;16897;52.422;13.678;2023-03-13T07:16:17;99725.31;;;10.39;59.61
30073;BME280;16897;52.422;13.678;2023-03-13T07:20:19;99688.06;;;10.25;59.58
30073;BME280;16897;52.422;13.678;2023-03-13T07:24:21;99710.28;;;10.43;59.64
30073;BME280;16897;52.422;13.678;2023-03-13T07:28:22;99704.34;;;10.41;59.69
30073;BME280;16897;52.422;13.678;2023-03-13T07:32:25;99709.41;;;10.55;59.65
30073;BME280;16897;52.422;13.678;2023-03-13T07:36:26;99704.09;;;10.57;59.68
30073;BME280;16897;52.422;13.678;2023-03-13T07:40:28;99681.97;;;10.50;59.59
30073;BME280;16897;52.422;13.678;2023-03-13T07:44:29;99685.09;;;10.55;59.60
30073;BME280;16897;52.422;13.678;2023-03-13T07:48:33;99659.97;;;10.41;59.75
30073;BME280;16897;52.422;13.678;2023-03-13T07:52:35;99684.53;;;10.62;59.75
30073;BME280;16897;52.422;13.678;2023-03-13T07:56:37;99679.09;;;10.66;59.78
30073;BME280;16897;52.422;13.678;2023-03-13T08:00:38;99669.59;;;10.65;59.69
30073;BME280;16897;52.422;13.678;2023-03-13T08:04:40;99663.94;;;10.71;59.71
30073;BME280;16897;52.422;13.678;2023-03-13T08:08:42;99648.50;;;10.68;59.81
30073;BME280;16897;52.422;13.678;2023-03-13T08:12:43;99647.81;;;10.77;59.86
30073;BME280;16897;52.422;13.678;2023-03-13T08:16:45;99632.13;;;10.77;59.98
30073;BME280;16897;52.422;13.678;2023-03-13T08:20:46;99639.63;;;10.81;59.91
30073;BME280;16897;52.422;13.678;2023-03-13T08:24:48;99645.22;;;10.88;59.82
30073;BME280;16897;52.422;13.678;2023-03-13T08:28:57;99616.63;;;10.87;59.82
30073;BME280;16897;52.422;13.678;2023-03-13T08:33:00;99623.28;;;10.91;59.71
30073;BME280;16897;52.422;13.678;2023-03-13T08:37:01;99610.34;;;10.89;59.89
30073;BME280;16897;52.422;13.678;2023-03-13T08:41:03;99616.06;;;10.94;59.91
30073;BME280;16897;52.422;13.678;2023-03-13T08:45:05;99624.75;;;11.06;59.76
30073;BME280;16897;52.422;13.678;2023-03-13T08:49:07;99582.53;;;10.88;59.93
30073;BME280;16897;52.422;13.678;2023-03-13T08:53:09;99603.38;;;11.01;60.09
30073;BME280;16897;52.422;13.678;2023-03-13T08:57:10;99557.88;;;10.92;60.05
30073;BME280;16897;52.422;13.678;2023-03-13T09:01:13;99575.34;;;11.03;60.13
30073;BME280;16897;52.422;13.678;2023-03-13T09:05:14;99573.00;;;11.11;60.14
30073;BME280;16897;52.422;13.678;2023-03-13T09:09:16;99545.66;;;11.04;60.03
30073;BME280;16897;52.422;13.678;2023-03-13T09:13:17;99575.50;;;11.35;60.20
30073;BME280;16897;52.422;13.678;2023-03-13T09:17:19;99563.28;;;11.36;60.23
30073;BME280;16897;52.422;13.678;2023-03-13T09:21:23;99563.75;;;11.41;60.11
30073;BME280;16897;52.422;13.678;2023-03-13T09:25:25;99545.56;;;11.39;60.12
30073;BME280;16897;52.422;13.678;2023-03-13T09:29:26;99551.75;;;11.49;60.19
30073;BME280;16897;52.422;13.678;2023-03-13T09:33:28;99517.19;;;11.23;60.08
30073;BME280;16897;52.422;13.678;2023-03-13T09:37:29;99555.56;;;11.57;60.07
30073;BME280;16897;52.422;13.678;2023-03-13T09:45:52;99555.78;;;11.65;60.14
30073;BME280;16897;52.422;13.678;2023-03-13T09:54:37;99554.78;;;11.77;60.19
30073;BME280;16897;52.422;13.678;2023-03-13T09:58:47;99548.16;;;11.73;60.22
30073;BME280;16897;52.422;13.678;2023-03-13T10:03:10;99528.78;;;11.76;60.43
30073;BME280;16897;52.422;13.678;2023-03-13T10:07:13;99551.16;;;11.91;60.29
30073;BME280;16897;52.422;13.678;2023-03-13T10:11:36;99525.19;;;11.88;60.41
30073;BME280;16897;52.422;13.678;2023-03-13T10:15:50;99531.97;;;11.90;60.33
30073;BME280;16897;52.422;13.678;2023-03-13T10:20:00;99529.13;;;11.93;60.40
30073;BME280;16897;52.422;13.678;2023-03-13T10:28:31;99539.91;;;12.11;60.25
30073;BME280;16897;52.422;13.678;2023-03-13T10:32:32;99521.00;;;12.08;60.32
30073;BME280;16897;52.422;13.678;2023-03-13T10:36:53;99515.25;;;12.14;60.45
30073;BME280;16897;52.422;13.678;2023-03-13T10:40:56;99528.56;;;12.22;60.45
30073;BME280;16897;52.422;13.678;2023-03-13T10:45:00;99500.03;;;12.19;60.35
30073;BME280;16897;52.422;13.678;2023-03-13T10:49:20;99513.78;;;12.32;60.42
30073;BME280;16897;52.422;13.678;2023-03-13T10:57:33;99509.75;;;12.49;60.49
30073;BME280;16897;52.422;13.678;2023-03-13T11:01:41;99474.44;;;12.44;60.53
30073;BME280;16897;52.422;13.678;2023-03-13T11:05:58;99488.63;;;12.62;60.48
30073;BME280;16897;52.422;13.678;2023-03-13T11:14:20;99431.38;;;12.57;60.63
30073;BME280;16897;52.422;13.678;2023-03-13T11:27:39;99447.06;;;13.09;60.59
30073;BME280;16897;52.422;13.678;2023-03-13T11:31:46;99421.56;;;13.11;60.65
30073;BME280;16897;52.422;13.678;2023-03-13T11:35:59;99435.03;;;13.27;60.67
30073;BME280;16897;52.422;13.678;2023-03-13T11:40:26;99433.97;;;13.40;60.68
30073;BME280;16897;52.422;13.678;2023-03-13T11:44:58;99430.41;;;13.50;60.69
30073;BME280;16897;52.422;13.678;2023-03-13T11:53:21;99442.44;;;13.72;60.74
30073;BME280;16897;52.422;13.678;2023-03-13T11:57:31;99425.84;;;13.82;60.79
30073;BME280;16897;52.422;13.678;2023-03-13T12:01:59;99427.53;;;13.92;60.67
30073;BME280;16897;52.422;13.678;2023-03-13T12:06:04;99407.91;;;13.97;60.79
30073;BME280;16897;52.422;13.678;2023-03-13T12:14:34;99413.69;;;14.20;60.71
30073;BME280;16897;52.422;13.678;2023-03-13T12:18:40;99420.88;;;14.37;60.71
30073;BME280;16897;52.422;13.678;2023-03-13T12:27:25;99402.44;;;14.56;60.80
30073;BME280;16897;52.422;13.678;2023-03-13T12:31:39;99384.06;;;14.56;60.63
30073;BME280;16897;52.422;13.678;2023-03-13T12:35:48;99390.06;;;14.76;60.71
30073;BME280;16897;52.422;13.678;2023-03-13T12:40:05;99393.88;;;14.92;60.66
30073;BME280;16897;52.422;13.678;2023-03-13T12:44:18;99371.88;;;14.93;60.76
30073;BME280;16897;52.422;13.678;2023-03-13T13:01:03;99360.84;;;15.53;60.77
30073;BME280;16897;52.422;13.678;2023-03-13T13:05:05;99308.44;;;15.41;60.60
30073;BME280;16897;52.422;13.678;2023-03-13T13:09:13;99349.28;;;15.81;60.63
30073;BME280;16897;52.422;13.678;2023-03-13T13:13:27;99329.59;;;15.85;60.73
30073;BME280;16897;52.422;13.678;2023-03-13T13:17:42;99342.63;;;16.13;60.82
30073;BME280;16897;52.422;13.678;2023-03-13T13:21:45;99335.91;;;16.19;60.55
30073;BME280;16897;52.422;13.678;2023-03-13T13:25:48;99335.69;;;16.38;60.66
30073;BME280;16897;52.422;13.678;2023-03-13T13:29:54;99332.44;;;16.52;60.57
30073;BME280;16897;52.422;13.678;2023-03-13T13:33:56;99342.25;;;16.68;60.63
30073;BME280;16897;52.422;13.678;2023-03-13T13:46:32;99324.88;;;16.84;60.59
30073;BME280;16897;52.422;13.678;2023-03-13T13:50:34;99329.19;;;16.93;60.37
30073;BME280;16897;52.422;13.678;2023-03-13T13:58:45;99319.50;;;16.93;60.43
30073;BME280;16897;52.422;13.678;2023-03-13T14:02:55;99292.56;;;16.81;60.36
30073;BME280;16897;52.422;13.678;2023-03-13T14:07:00;99334.19;;;17.04;60.30
30073;BME280;16897;52.422;13.678;2023-03-13T14:15:31;99339.50;;;17.12;60.33
30073;BME280;16897;52.422;13.678;2023-03-13T14:19:40;99325.44;;;17.12;60.41
30073;BME280;16897;52.422;13.678;2023-03-13T14:23:44;99324.97;;;17.16;60.56
30073;BME280;16897;52.422;13.678;2023-03-13T14:27:47;99315.91;;;17.19;60.36
30073;BME280;16897;52.422;13.678;2023-03-13T14:31:54;99318.56;;;17.27;60.46
30073;BME280;16897;52.422;13.678;2023-03-13T14:35:56;99286.22;;;17.09;60.17
30073;BME280;16897;52.422;13.678;2023-03-13T14:40:05;99296.66;;;17.35;60.36
30073;BME280;16897;52.422;13.678;2023-03-13T14:44:21;99314.78;;;17.38;60.25
30073;BME280;16897;52.422;13.678;2023-03-13T14:48:32;99299.28;;;17.43;60.16
30073;BME280;16897;52.422;13.678;2023-03-13T14:52:34;99304.22;;;17.46;60.29
30073;BME280;16897;52.422;13.678;2023-03-13T14:56:38;99261.66;;;17.33;60.27
30073;BME280;16897;52.422;13.678;2023-03-13T15:00:43;99255.09;;;17.29;60.02
30073;BME280;16897;52.422;13.678;2023-03-13T15:04:58;99304.56;;;17.59;59.96
30073;BME280;16897;52.422;13.678;2023-03-13T15:13:36;99274.53;;;17.52;60.07
30073;BME280;16897;52.422;13.678;2023-03-13T15:17:38;99278.19;;;17.59;59.97
30073;BME280;16897;52.422;13.678;2023-03-13T15:21:40;99266.78;;;17.59;59.88
30073;BME280;16897;52.422;13.678;2023-03-13T15:25:41;99267.28;;;17.62;59.86
30073;BME280;16897;52.422;13.678;2023-03-13T15:29:44;99223.75;;;17.34;59.88
30073;BME280;16897;52.422;13.678;2023-03-13T15:33:46;99256.72;;;17.62;60.01
30073;BME280;16897;52.422;13.678;2023-03-13T15:37:49;99244.84;;;17.58;59.87
30073;BME280;16897;52.422;13.678;2023-03-13T15:41:51;99253.41;;;17.68;59.73
30073;BME280;16897;52.422;13.678;2023-03-13T15:45:54;99250.28;;;17.65;59.83
30073;BME280;16897;52.422;13.678;2023-03-13T15:49:55;99228.03;;;17.51;59.96
30073;BME280;16897;52.422;13.678;2023-03-13T15:53:57;99231.66;;;17.58;60.02
30073;BME280;16897;52.422;13.678;2023-03-13T15:57:59;99220.75;;;17.61;59.71
30073;BME280;16897;52.422;13.678;2023-03-13T16:02:01;99225.38;;;17.59;59.89
30073;BME280;16897;52.422;13.678;2023-03-13T16:06:18;99227.00;;;17.60;59.91
30073;BME280;16897;52.422;13.678;2023-03-13T16:10:27;99201.63;;;17.51;59.78
30073;BME280;16897;52.422;13.678;2023-03-13T16:14:28;99174.44;;;17.34;59.71
30073;BME280;16897;52.422;13.678;2023-03-13T16:18:30;99206.75;;;17.53;59.82
30073;BME280;16897;52.422;13.678;2023-03-13T16:22:32;99180.53;;;17.43;59.82
30073;BME280;16897;52.422;13.678;2023-03-13T16:26:33;99168.66;;;17.39;59.53
30073;BME280;16897;52.422;13.678;2023-03-13T16:30:35;99173.59;;;17.50;59.67
30073;BME280;16897;52.422;13.678;2023-03-13T16:34:36;99144.91;;;17.39;59.87
30073;BME280;16897;52.422;13.678;2023-03-13T16:38:38;99165.03;;;17.48;59.75
30073;BME280;16897;52.422;13.678;2023-03-13T16:42:40;99168.81;;;17.45;59.56
30073;BME280;16897;52.422;13.678;2023-03-13T16:46:41;99160.22;;;17.43;59.76
30073;BME280;16897;52.422;13.678;2023-03-13T16:50:46;99140.28;;;17.41;59.45
30073;BME280;16897;52.422;13.678;2023-03-13T16:54:48;99107.38;;;17.12;59.65
30073;BME280;16897;52.422;13.678;2023-03-13T16:58:50;99144.25;;;17.37;59.46
30073;BME280;16897;52.422;13.678;2023-03-13T17:02:52;99107.81;;;17.24;59.45
30073;BME280;16897;52.422;13.678;2023-03-13T17:06:53;99112.28;;;17.23;59.50
30073;BME280;16897;52.422;13.678;2023-03-13T17:10:55;99087.56;;;17.08;59.46
30073;BME280;16897;52.422;13.678;2023-03-13T17:14:56;99113.91;;;17.24;59.73
30073;BME280;16897;52.422;13.678;2023-03-13T17:18:58;99125.13;;;17.27;59.55
30073;BME280;16897;52.422;13.678;2023-03-13T17:23:00;99126.78;;;17.28;59.31
30073;BME280;16897;52.422;13.678;2023-03-13T17:27:01;99096.50;;;16.99;59.30
30073;BME280;16897;52.422;13.678;2023-03-13T17:31:03;99141.31;;;17.23;59.55
30073;BME280;16897;52.422;13.678;2023-03-13T17:35:05;99132.75;;;17.13;59.29
30073;BME280;16897;52.422;13.678;2023-03-13T17:39:06;99143.28;;;17.13;59.52
30073;BME280;16897;52.422;13.678;2023-03-13T17:43:10;99123.50;;;17.09;59.28
30073;BME280;16897;52.422;13.678;2023-03-13T17:47:15;99160.13;;;17.12;59.23
30073;BME280;16897;52.422;13.678;2023-03-13T17:51:26;99157.47;;;17.12;59.37
30073;BME280;16897;52.422;13.678;2023-03-13T17:55:27;99137.84;;;16.98;59.40
30073;BME280;16897;52.422;13.678;2023-03-13T17:59:29;99112.00;;;16.86;59.51
30073;BME280;16897;52.422;13.678;2023-03-13T18:03:31;99142.81;;;17.01;59.25
30073;BME280;16897;52.422;13.678;2023-03-13T18:07:32;99141.00;;;16.94;59.22
30073;BME280;16897;52.422;13.678;2023-03-13T18:11:36;99102.06;;;16.79;59.38
30073;BME280;16897;52.422;13.678;2023-03-13T18:15:38;99107.69;;;16.93;59.28
30073;BME280;16897;52.422;13.678;2023-03-13T18:19:40;99130.94;;;16.97;59.13
30073;BME280;16897;52.422;13.678;2023-03-13T18:23:43;99134.03;;;17.01;59.26
30073;BME280;16897;52.422;13.678;2023-03-13T18:27:44;99126.66;;;16.96;59.36
30073;BME280;16897;52.422;13.678;2023-03-13T18:31:46;99087.59;;;16.84;59.29
30073;BME280;16897;52.422;13.678;2023-03-13T18:35:48;99101.44;;;16.86;59.36
30073;BME280;16897;52.422;13.678;2023-03-13T18:39:50;99087.91;;;16.89;59.40
30073;BME280;16897;52.422;13.678;2023-03-13T18:43:51;99100.91;;;16.98;59.32
30073;BME280;16897;52.422;13.678;2023-03-13T18:47:53;99093.88;;;16.83;59.29
30073;BME280;16897;52.422;13.678;2023-03-13T18:51:55;99114.94;;;16.99;59.36
30073;BME280;16897;52.422;13.678;2023-03-13T18:56:00;99068.81;;;16.78;59.25
30073;BME280;16897;52.422;13.678;2023-03-13T19:00:08;99093.84;;;16.99;59.03
30073;BME280;16897;52.422;13.678;2023-03-13T19:04:14;99071.09;;;16.90;59.08
30073;BME280;16897;52.422;13.678;2023-03-13T19:08:16;99078.84;;;16.91;59.42
30073;BME280;16897;52.422;13.678;2023-03-13T19:12:17;99062.03;;;16.84;59.27
30073;BME280;16897;52.422;13.678;2023-03-13T19:16:29;99076.53;;;16.96;59.21
30073;BME280;16897;52.422;13.678;2023-03-13T19:20:31;99070.28;;;16.89;59.10
30073;BME280;16897;52.422;13.678;2023-03-13T19:24:33;99044.94;;;16.80;59.09
30073;BME280;16897;52.422;13.678;2023-03-13T19:28:34;99045.06;;;16.87;59.06
30073;BME280;16897;52.422;13.678;2023-03-13T19:32:36;99034.72;;;16.85;59.09
30073;BME280;16897;52.422;13.678;2023-03-13T19:36:39;99063.69;;;16.93;59.01
30073;BME280;16897;52.422;13.678;2023-03-13T19:40:41;99050.81;;;16.90;58.95
30073;BME280;16897;52.422;13.678;2023-03-13T19:44:43;99037.81;;;16.89;59.03
30073;BME280;16897;52.422;13.678;2023-03-13T19:48:44;99026.63;;;16.87;59.22
30073;BME280;16897;52.422;13.678;2023-03-13T19:52:46;99017.06;;;16.86;59.17
30073;BME280;16897;52.422;13.678;2023-03-13T19:56:48;98990.03;;;16.59;59.04
30073;BME280;16897;52.422;13.678;2023-03-13T20:00:50;99010.28;;;16.75;58.98
30073;BME280;16897;52.422;13.678;2023-03-13T20:04:51;99014.56;;;16.68;59.04
30073;BME280;16897;52.422;13.678;2023-03-13T20:08:54;99042.28;;;16.80;59.04
30073;BME280;16897;52.422;13.678;2023-03-13T20:12:57;99027.63;;;16.86;59.08
30073;BME280;16897;52.422;13.678;2023-03-13T20:16:58;99033.03;;;16.84;59.21
30073;BME280;16897;52.422;13.678;2023-03-13T20:21:00;99031.88;;;16.87;58.99
30073;BME280;16897;52.422;13.678;2023-03-13T20:25:02;99003.09;;;16.77;59.12
30073;BME280;16897;52.422;13.678;2023-03-13T20:29:04;98996.63;;;16.79;59.09
30073;BME280;16897;52.422;13.678;2023-03-13T20:33:05;98996.31;;;16.74;59.20
30073;BME280;16897;52.422;13.678;2023-03-13T20:37:07;99001.75;;;16.81;59.13
30073;BME280;16897;52.422;13.678;2023-03-13T20:41:09;98998.28;;;16.80;58.97
30073;BME280;16897;52.422;13.678;2023-03-13T20:45:11;98962.69;;;16.60;58.92
30073;BME280;16897;52.422;13.678;2023-03-13T20:49:12;98957.44;;;16.52;58.94
30073;BME280;16897;52.422;13.678;2023-03-13T20:53:17;98945.41;;;16.41;58.89
30073;BME280;16897;52.422;13.678;2023-03-13T20:57:19;98943.59;;;16.50;58.92
30073;BME280;16897;52.422;13.678;2023-03-13T21:01:21;98958.09;;;16.54;59.17
30073;BME280;16897;52.422;13.678;2023-03-13T21:05:24;98993.16;;;16.79;58.92
30073;BME280;16897;52.422;13.678;2023-03-13T21:09:26;98979.63;;;16.74;59.12
30073;BME280;16897;52.422;13.678;2023-03-13T21:13:27;98938.00;;;16.53;58.98
30073;BME280;16897;52.422;13.678;2023-03-13T21:17:29;98982.81;;;16.77;59.08
30073;BME280;16897;52.422;13.678;2023-03-13T21:21:30;98979.34;;;16.77;59.10
30073;BME280;16897;52.422;13.678;2023-03-13T21:25:32;98985.91;;;16.73;59.13
30073;BME280;16897;52.422;13.678;2023-03-13T21:29:33;98980.31;;;16.68;58.77
30073;BME280;16897;52.422;13.678;2023-03-13T21:33:35;98964.03;;;16.56;58.91
30073;BME280;16897;52.422;13.678;2023-03-13T21:37:37;99002.06;;;16.70;58.97
30073;BME280;16897;52.422;13.678;2023-03-13T21:41:39;99015.41;;;16.68;58.81
30073;BME280;16897;52.422;13.678;2023-03-13T21:45:41;99008.16;;;16.54;58.98
30073;BME280;16897;52.422;13.678;2023-03-13T21:49:43;99000.94;;;16.56;59.06
30073;BME280;16897;52.422;13.678;2023-03-13T21:53:44;98985.44;;;16.61;59.01
30073;BME280;16897;52.422;13.678;2023-03-13T21:57:46;98972.09;;;16.46;59.01
30073;BME280;16897;52.422;13.678;2023-03-13T22:01:47;99001.41;;;16.59;59.05
30073;BME280;16897;52.422;13.678;2023-03-13T22:05:48;98978.19;;;16.55;58.84
30073;BME280;16897;52.422;13.678;2023-03-13T22:09:50;98973.56;;;16.49;58.80
30073;BME280;16897;52.422;13.678;2023-03-13T22:13:52;98965.34;;;16.44;58.78
30073;BME280;16897;52.422;13.678;2023-03-13T22:17:54;98980.81;;;16.47;58.66
30073;BME280;16897;52.422;13.678;2023-03-13T22:21:56;98973.59;;;16.41;58.80
30073;BME280;16897;52.422;13.678;2023-03-13T22:25:58;98989.38;;;16.49;58.93
30073;BME280;16897;52.422;13.678;2023-03-13T22:30:00;98991.69;;;16.44;58.77
30073;BME280;16897;52.422;13.678;2023-03-13T22:34:01;98954.81;;;16.27;58.69
30073;BME280;16897;52.422;13.678;2023-03-13T22:38:03;98956.63;;;16.35;58.87
30073;BME280;16897;52.422;13.678;2023-03-13T22:42:05;98955.13;;;16.41;58.75
30073;BME280;16897;52.422;13.678;2023-03-13T22:46:08;98902.81;;;16.13;58.77